Main page
METAR-TAF:

METAR-TAF

Airports :

Pratt Regional Airport

Pratt, Kansas, United States

latitude: 37-42N, longitude: 098-45W, elevation: 1952 ft

Current weather observation

The report was made 17 minutes ago, at 03:15 UTC
Wind 7 mph from the East
Temperature 72°F
Humidity 100%
Pressure 30.21 in. Hg
Visibility: 10 miles
Clear sky

METAR: KPTT 200315Z AUTO 08006KT 10SM CLR 22/22 A3021 RMK AO2 T02180215

Time: 22:32 (03:32 UTC)


TAF: missing

Weather observations and forecasts of more than 4000 airports (METAR and TAF reports).

The available stations are represented by yellow and red dots on the map.

Hover mouse over dot to see the name of the station.

Then click to see weather observations and forecasts.

To change the map : click on the green buttons with a black cross to zoom in, on the green button with a dash to zoom out, or on the green arrows for adjacent maps.


METAR-TAF: